sensor_id;sensor_type;location;lat;lon;timestamp;pressure;altitude;pressure_sealevel;temperature;humidity
21520;BME280;10921;53.614;9.882;2023-03-01T00:00:49;102983.81;;;0.31;73.67
21520;BME280;10921;53.614;9.882;2023-03-01T00:03:16;102948.41;;;0.01;73.54
21520;BME280;10921;53.614;9.882;2023-03-01T00:05:46;102985.66;;;0.26;74.24
21520;BME280;10921;53.614;9.882;2023-03-01T00:08:13;102950.13;;;0.04;73.71
21520;BME280;10921;53.614;9.882;2023-03-01T00:10:39;102976.19;;;0.16;73.78
21520;BME280;10921;53.614;9.882;2023-03-01T00:13:06;102988.41;;;0.18;73.86
21520;BME280;10921;53.614;9.882;2023-03-01T00:15:32;102984.97;;;0.15;73.79
21520;BME280;10921;53.614;9.882;2023-03-01T00:18:01;102971.97;;;0.06;73.79
21520;BME280;10921;53.614;9.882;2023-03-01T00:20:27;102978.03;;;0.11;73.90
21520;BME280;10921;53.614;9.882;2023-03-01T00:22:54;102979.81;;;0.07;73.65
21520;BME280;10921;53.614;9.882;2023-03-01T00:25:21;102973.75;;;0.04;73.45
21520;BME280;10921;53.614;9.882;2023-03-01T00:27:47;102965.06;;;0.00;73.45
21520;BME280;10921;53.614;9.882;2023-03-01T00:30:15;102947.81;;;-0.18;73.53
21520;BME280;10921;53.614;9.882;2023-03-01T00:32:41;102933.06;;;-0.26;73.72
21520;BME280;10921;53.614;9.882;2023-03-01T00:35:08;102938.41;;;-0.32;73.69
21520;BME280;10921;53.614;9.882;2023-03-01T00:37:35;102971.34;;;-0.13;73.60
21520;BME280;10921;53.614;9.882;2023-03-01T00:40:01;102947.22;;;-0.38;73.65
21520;BME280;10921;53.614;9.882;2023-03-01T00:42:28;102927.25;;;-0.48;73.87
21520;BME280;10921;53.614;9.882;2023-03-01T00:44:54;102970.63;;;-0.23;73.83
21520;BME280;10921;53.614;9.882;2023-03-01T00:47:21;102972.41;;;-0.25;74.38
21520;BME280;10921;53.614;9.882;2023-03-01T00:49:48;102963.66;;;-0.27;74.33
21520;BME280;10921;53.614;9.882;2023-03-01T00:52:14;102935.16;;;-0.51;74.50
21520;BME280;10921;53.614;9.882;2023-03-01T00:54:41;102937.75;;;-0.48;74.60
21520;BME280;10921;53.614;9.882;2023-03-01T00:57:07;102929.97;;;-0.56;74.70
21520;BME280;10921;53.614;9.882;2023-03-01T00:59:34;102945.59;;;-0.47;74.91
21520;BME280;10921;53.614;9.882;2023-03-01T01:02:01;102963.91;;;-0.44;75.09
21520;BME280;10921;53.614;9.882;2023-03-01T01:04:27;102955.16;;;-0.46;74.81
21520;BME280;10921;53.614;9.882;2023-03-01T01:06:54;102968.25;;;-0.43;74.48
21520;BME280;10921;53.614;9.882;2023-03-01T01:09:20;102955.28;;;-0.52;74.75
21520;BME280;10921;53.614;9.882;2023-03-01T01:11:49;102952.66;;;-0.53;74.31
21520;BME280;10921;53.614;9.882;2023-03-01T01:14:17;102956.13;;;-0.51;74.33
21520;BME280;10921;53.614;9.882;2023-03-01T01:16:44;102961.41;;;-0.53;74.56
21520;BME280;10921;53.614;9.882;2023-03-01T01:19:11;102956.16;;;-0.54;74.41
21520;BME280;10921;53.614;9.882;2023-03-01T01:21:37;102953.56;;;-0.57;74.39
21520;BME280;10921;53.614;9.882;2023-03-01T01:24:04;102951.84;;;-0.60;74.75
21520;BME280;10921;53.614;9.882;2023-03-01T01:26:33;102926.75;;;-0.78;74.99
21520;BME280;10921;53.614;9.882;2023-03-01T01:29:01;102923.25;;;-0.78;75.40
21520;BME280;10921;53.614;9.882;2023-03-01T01:31:29;102946.69;;;-0.64;75.54
21520;BME280;10921;53.614;9.882;2023-03-01T01:33:56;102892.00;;;-0.93;75.74
21520;BME280;10921;53.614;9.882;2023-03-01T01:36:23;102950.19;;;-0.65;76.25
21520;BME280;10921;53.614;9.882;2023-03-01T01:38:50;102931.91;;;-0.73;75.96
21520;BME280;10921;53.614;9.882;2023-03-01T01:41:17;102944.94;;;-0.65;76.35
21520;BME280;10921;53.614;9.882;2023-03-01T01:43:46;102930.97;;;-0.64;76.46
21520;BME280;10921;53.614;9.882;2023-03-01T01:46:21;102933.56;;;-0.63;76.42
21520;BME280;10921;53.614;9.882;2023-03-01T01:48:58;102933.56;;;-0.63;76.59
21520;BME280;10921;53.614;9.882;2023-03-01T01:51:31;102924.81;;;-0.62;76.51
21520;BME280;10921;53.614;9.882;2023-03-01T01:54:25;102923.91;;;-0.61;76.23
21520;BME280;10921;53.614;9.882;2023-03-01T01:56:57;102912.72;;;-0.75;75.67
21520;BME280;10921;53.614;9.882;2023-03-01T01:59:28;102920.47;;;-0.64;76.08
21520;BME280;10921;53.614;9.882;2023-03-01T02:01:55;102917.88;;;-0.66;75.73
21520;BME280;10921;53.614;9.882;2023-03-01T02:04:24;102915.31;;;-0.72;75.63
21520;BME280;10921;53.614;9.882;2023-03-01T02:06:55;102905.69;;;-0.73;75.81
21520;BME280;10921;53.614;9.882;2023-03-01T02:09:25;102914.41;;;-0.71;75.65
21520;BME280;10921;53.614;9.882;2023-03-01T02:11:51;102907.44;;;-0.72;75.74
21520;BME280;10921;53.614;9.882;2023-03-01T02:14:19;102910.16;;;-0.77;75.31
21520;BME280;10921;53.614;9.882;2023-03-01T02:16:46;102912.72;;;-0.75;75.43
21520;BME280;10921;53.614;9.882;2023-03-01T02:19:38;102877.13;;;-0.93;75.86
21520;BME280;10921;53.614;9.882;2023-03-01T02:22:30;102917.16;;;-0.80;75.68
21520;BME280;10921;53.614;9.882;2023-03-01T02:30:35;102921.47;;;-0.76;76.13
21520;BME280;10921;53.614;9.882;2023-03-01T02:33:04;102913.59;;;-0.75;76.76
21520;BME280;10921;53.614;9.882;2023-03-01T02:35:38;102908.25;;;-0.67;76.84
21520;BME280;10921;53.614;9.882;2023-03-01T02:38:07;102912.59;;;-0.63;76.61
21520;BME280;10921;53.614;9.882;2023-03-01T02:40:35;102903.84;;;-0.63;76.43
21520;BME280;10921;53.614;9.882;2023-03-01T02:43:07;102905.50;;;-0.58;75.94
21520;BME280;10921;53.614;9.882;2023-03-01T02:45:35;102853.44;;;-0.87;75.65
21520;BME280;10921;53.614;9.882;2023-03-01T02:48:01;102897.72;;;-0.62;75.60
21520;BME280;10921;53.614;9.882;2023-03-01T02:53:01;102900.38;;;-0.64;75.81
21520;BME280;10921;53.614;9.882;2023-03-01T02:55:30;102892.53;;;-0.68;75.54
21520;BME280;10921;53.614;9.882;2023-03-01T02:57:59;102901.22;;;-0.62;75.98
21520;BME280;10921;53.614;9.882;2023-03-01T03:00:35;102887.22;;;-0.62;76.16
21520;BME280;10921;53.614;9.882;2023-03-01T03:03:06;102888.16;;;-0.68;76.07
21520;BME280;10921;53.614;9.882;2023-03-01T03:05:33;102870.81;;;-0.77;75.51
21520;BME280;10921;53.614;9.882;2023-03-01T03:08:02;102888.13;;;-0.65;75.91
21520;BME280;10921;53.614;9.882;2023-03-01T03:10:35;102895.13;;;-0.64;76.45
21520;BME280;10921;53.614;9.882;2023-03-01T03:13:05;102878.59;;;-0.72;75.66
21520;BME280;10921;53.614;9.882;2023-03-01T03:15:32;102898.63;;;-0.65;75.95
21520;BME280;10921;53.614;9.882;2023-03-01T03:18:05;102889.03;;;-0.66;75.89
21520;BME280;10921;53.614;9.882;2023-03-01T03:20:33;102895.16;;;-0.67;75.80
21520;BME280;10921;53.614;9.882;2023-03-01T03:23:00;102864.78;;;-0.85;75.63
21520;BME280;10921;53.614;9.882;2023-03-01T03:25:28;102873.31;;;-0.69;75.94
21520;BME280;10921;53.614;9.882;2023-03-01T03:27:55;102884.63;;;-0.62;76.01
21520;BME280;10921;53.614;9.882;2023-03-01T03:30:28;102878.53;;;-0.66;76.00
21520;BME280;10921;53.614;9.882;2023-03-01T03:32:56;102868.03;;;-0.66;76.39
21520;BME280;10921;53.614;9.882;2023-03-01T03:37:52;102875.56;;;-0.43;76.57
21520;BME280;10921;53.614;9.882;2023-03-01T03:40:30;102843.31;;;-0.47;76.74
21520;BME280;10921;53.614;9.882;2023-03-01T03:42:58;102822.28;;;-0.45;76.57
21520;BME280;10921;53.614;9.882;2023-03-01T03:45:24;102867.22;;;-0.10;76.92
21520;BME280;10921;53.614;9.882;2023-03-01T03:47:51;102831.50;;;-0.20;76.58
21520;BME280;10921;53.614;9.882;2023-03-01T03:50:18;102863.44;;;0.07;77.06
21520;BME280;10921;53.614;9.882;2023-03-01T03:52:44;102851.88;;;0.18;76.91
21520;BME280;10921;53.614;9.882;2023-03-01T03:55:12;102836.22;;;0.14;76.69
21520;BME280;10921;53.614;9.882;2023-03-01T03:57:39;102852.44;;;0.35;76.75
21520;BME280;10921;53.614;9.882;2023-03-01T04:00:10;102836.69;;;0.34;76.40
21520;BME280;10921;53.614;9.882;2023-03-01T04:02:42;102853.84;;;0.55;76.12
21520;BME280;10921;53.614;9.882;2023-03-01T04:05:11;102852.88;;;0.60;75.84
21520;BME280;10921;53.614;9.882;2023-03-01T04:07:38;102825.94;;;0.48;75.19
21520;BME280;10921;53.614;9.882;2023-03-01T04:10:07;102829.34;;;0.54;75.35
21520;BME280;10921;53.614;9.882;2023-03-01T04:12:34;102803.31;;;0.41;75.15
21520;BME280;10921;53.614;9.882;2023-03-01T04:15:03;102836.94;;;0.68;74.60
21520;BME280;10921;53.614;9.882;2023-03-01T04:17:44;102840.38;;;0.73;74.66
21520;BME280;10921;53.614;9.882;2023-03-01T04:20:16;102839.56;;;0.69;74.92
21520;BME280;10921;53.614;9.882;2023-03-01T04:23:15;102847.16;;;0.83;75.14
21520;BME280;10921;53.614;9.882;2023-03-01T04:25:50;102836.75;;;0.77;74.45
21520;BME280;10921;53.614;9.882;2023-03-01T04:28:26;102815.94;;;0.68;74.45
21520;BME280;10921;53.614;9.882;2023-03-01T04:30:55;102799.50;;;0.57;74.22
21520;BME280;10921;53.614;9.882;2023-03-01T04:33:23;102842.75;;;0.84;74.25
21520;BME280;10921;53.614;9.882;2023-03-01T04:35:51;102844.41;;;0.89;74.36
21520;BME280;10921;53.614;9.882;2023-03-01T04:38:19;102846.84;;;0.98;74.67
21520;BME280;10921;53.614;9.882;2023-03-01T04:40:46;102802.59;;;0.77;74.60
21520;BME280;10921;53.614;9.882;2023-03-01T04:43:13;102864.09;;;1.12;74.53
21520;BME280;10921;53.614;9.882;2023-03-01T04:45:40;102856.97;;;1.18;74.98
21520;BME280;10921;53.614;9.882;2023-03-01T04:48:07;102845.53;;;1.19;74.90
21520;BME280;10921;53.614;9.882;2023-03-01T04:50:34;102850.59;;;1.28;74.45
21520;BME280;10921;53.614;9.882;2023-03-01T04:53:01;102857.44;;;1.37;74.30
21520;BME280;10921;53.614;9.882;2023-03-01T04:55:28;102820.09;;;1.20;74.44
21520;BME280;10921;53.614;9.882;2023-03-01T04:57:55;102857.97;;;1.53;74.61
21520;BME280;10921;53.614;9.882;2023-03-01T05:00:22;102856.00;;;1.61;74.26
21520;BME280;10921;53.614;9.882;2023-03-01T05:02:51;102854.13;;;1.67;74.35
21520;BME280;10921;53.614;9.882;2023-03-01T05:05:32;102852.16;;;1.75;74.82
21520;BME280;10921;53.614;9.882;2023-03-01T05:08:05;102851.13;;;1.83;73.96
21520;BME280;10921;53.614;9.882;2023-03-01T05:10:34;102846.53;;;1.91;73.84
21520;BME280;10921;53.614;9.882;2023-03-01T05:13:03;102821.41;;;1.77;73.66
21520;BME280;10921;53.614;9.882;2023-03-01T05:15:31;102838.44;;;1.98;73.18
21520;BME280;10921;53.614;9.882;2023-03-01T05:17:59;102836.63;;;2.00;73.69
21520;BME280;10921;53.614;9.882;2023-03-01T05:20:27;102843.22;;;2.17;72.90
21520;BME280;10921;53.614;9.882;2023-03-01T05:22:58;102857.94;;;2.25;73.34
21520;BME280;10921;53.614;9.882;2023-03-01T05:25:26;102849.00;;;2.31;72.83
21520;BME280;10921;53.614;9.882;2023-03-01T05:27:52;102834.19;;;2.27;72.86
21520;BME280;10921;53.614;9.882;2023-03-01T05:30:19;102854.00;;;2.41;72.17
21520;BME280;10921;53.614;9.882;2023-03-01T05:32:48;102846.88;;;2.45;72.68
21520;BME280;10921;53.614;9.882;2023-03-01T05:35:17;102848.44;;;2.52;72.34
21520;BME280;10921;53.614;9.882;2023-03-01T05:37:46;102815.34;;;2.42;71.82
21520;BME280;10921;53.614;9.882;2023-03-01T05:40:17;102837.88;;;2.54;71.57
21520;BME280;10921;53.614;9.882;2023-03-01T05:42:49;102835.13;;;2.58;71.31
21520;BME280;10921;53.614;9.882;2023-03-01T05:45:17;102841.00;;;2.68;71.17
21520;BME280;10921;53.614;9.882;2023-03-01T05:47:45;102833.94;;;2.68;70.66
21520;BME280;10921;53.614;9.882;2023-03-01T05:50:15;102820.69;;;2.71;70.72
21520;BME280;10921;53.614;9.882;2023-03-01T05:52:50;102823.09;;;2.79;71.41
21520;BME280;10921;53.614;9.882;2023-03-01T05:55:19;102829.22;;;2.79;70.42
21520;BME280;10921;53.614;9.882;2023-03-01T05:57:46;102813.44;;;2.78;70.56
21520;BME280;10921;53.614;9.882;2023-03-01T06:00:15;102813.28;;;2.84;70.80
21520;BME280;10921;53.614;9.882;2023-03-01T06:02:44;102825.56;;;2.85;70.50
21520;BME280;10921;53.614;9.882;2023-03-01T06:05:12;102824.69;;;2.85;70.34
21520;BME280;10921;53.614;9.882;2023-03-01T06:07:40;102813.38;;;2.81;69.58
21520;BME280;10921;53.614;9.882;2023-03-01T06:10:08;102819.63;;;2.77;69.20
21520;BME280;10921;53.614;9.882;2023-03-01T06:12:36;102805.06;;;2.64;69.17
21520;BME280;10921;53.614;9.882;2023-03-01T06:15:04;102812.13;;;2.63;68.97
21520;BME280;10921;53.614;9.882;2023-03-01T06:17:33;102819.28;;;2.60;69.03
21520;BME280;10921;53.614;9.882;2023-03-01T06:20:05;102816.78;;;2.54;69.36
21520;BME280;10921;53.614;9.882;2023-03-01T06:22:32;102806.44;;;2.46;69.15
21520;BME280;10921;53.614;9.882;2023-03-01T06:24:58;102784.16;;;2.27;69.48
21520;BME280;10921;53.614;9.882;2023-03-01T06:27:25;102806.81;;;2.32;69.58
21520;BME280;10921;53.614;9.882;2023-03-01T06:29:52;102809.41;;;2.34;69.88
21520;BME280;10921;53.614;9.882;2023-03-01T06:32:18;102825.00;;;2.43;69.99
21520;BME280;10921;53.614;9.882;2023-03-01T06:34:45;102807.59;;;2.36;69.94
21520;BME280;10921;53.614;9.882;2023-03-01T06:37:11;102820.47;;;2.46;70.32
21520;BME280;10921;53.614;9.882;2023-03-01T06:39:38;102801.47;;;2.35;69.74
21520;BME280;10921;53.614;9.882;2023-03-01T06:42:05;102821.22;;;2.52;69.86
21520;BME280;10921;53.614;9.882;2023-03-01T06:44:31;102821.97;;;2.57;69.84
21520;BME280;10921;53.614;9.882;2023-03-01T06:46:58;102832.38;;;2.61;69.58
21520;BME280;10921;53.614;9.882;2023-03-01T06:49:25;102813.22;;;2.56;69.29
21520;BME280;10921;53.614;9.882;2023-03-01T06:51:52;102803.59;;;2.54;69.38
21520;BME280;10921;53.614;9.882;2023-03-01T06:54:18;102832.78;;;2.78;69.62
21520;BME280;10921;53.614;9.882;2023-03-01T06:56:49;102842.22;;;2.87;69.62
21520;BME280;10921;53.614;9.882;2023-03-01T06:59:16;102823.72;;;2.89;69.45
21520;BME280;10921;53.614;9.882;2023-03-01T07:01:43;102841.78;;;3.02;69.28
21520;BME280;10921;53.614;9.882;2023-03-01T07:04:10;102833.81;;;3.04;69.41
21520;BME280;10921;53.614;9.882;2023-03-01T07:06:37;102845.75;;;3.17;69.06
21520;BME280;10921;53.614;9.882;2023-03-01T07:09:03;102839.34;;;3.24;68.88
21520;BME280;10921;53.614;9.882;2023-03-01T07:11:30;102840.88;;;3.33;69.01
21520;BME280;10921;53.614;9.882;2023-03-01T07:13:56;102830.91;;;3.41;68.51
21520;BME280;10921;53.614;9.882;2023-03-01T07:16:24;102826.34;;;3.47;68.65
21520;BME280;10921;53.614;9.882;2023-03-01T07:18:51;102818.38;;;3.49;68.26
21520;BME280;10921;53.614;9.882;2023-03-01T07:21:17;102799.13;;;3.45;68.09
21520;BME280;10921;53.614;9.882;2023-03-01T07:23:47;102806.59;;;3.59;68.42
21520;BME280;10921;53.614;9.882;2023-03-01T07:26:14;102821.91;;;3.76;68.29
21520;BME280;10921;53.614;9.882;2023-03-01T07:28:40;102818.94;;;3.85;67.59
21520;BME280;10921;53.614;9.882;2023-03-01T07:31:07;102829.91;;;3.99;67.14
21520;BME280;10921;53.614;9.882;2023-03-01T07:33:33;102822.66;;;4.06;66.67
21520;BME280;10921;53.614;9.882;2023-03-01T07:36:01;102803.44;;;4.01;65.79
21520;BME280;10921;53.614;9.882;2023-03-01T07:38:28;102811.78;;;4.15;65.31
21520;BME280;10921;53.614;9.882;2023-03-01T07:41:00;102822.00;;;4.26;65.14
21520;BME280;10921;53.614;9.882;2023-03-01T07:43:28;102780.41;;;4.06;64.36
21520;BME280;10921;53.614;9.882;2023-03-01T07:45:58;102815.63;;;4.31;64.14
21520;BME280;10921;53.614;9.882;2023-03-01T07:48:24;102815.56;;;4.33;63.87
21520;BME280;10921;53.614;9.882;2023-03-01T07:50:51;102814.59;;;4.35;63.78
21520;BME280;10921;53.614;9.882;2023-03-01T07:53:17;102810.28;;;4.33;63.78
21520;BME280;10921;53.614;9.882;2023-03-01T07:55:44;102821.50;;;4.39;63.61
21520;BME280;10921;53.614;9.882;2023-03-01T07:58:10;102817.97;;;4.40;63.88
21520;BME280;10921;53.614;9.882;2023-03-01T08:00:37;102805.81;;;4.35;63.99
21520;BME280;10921;53.614;9.882;2023-03-01T08:03:03;102820.31;;;4.48;64.67
21520;BME280;10921;53.614;9.882;2023-03-01T08:05:30;102778.91;;;4.23;64.65
21520;BME280;10921;53.614;9.882;2023-03-01T08:07:56;102825.91;;;4.64;64.95
21520;BME280;10921;53.614;9.882;2023-03-01T08:10:23;102833.53;;;4.73;64.99
21520;BME280;10921;53.614;9.882;2023-03-01T08:12:51;102795.06;;;4.64;65.65
21520;BME280;10921;53.614;9.882;2023-03-01T08:15:18;102826.53;;;4.95;65.50
21520;BME280;10921;53.614;9.882;2023-03-01T08:17:45;102809.84;;;4.93;65.42
21520;BME280;10921;53.614;9.882;2023-03-01T08:20:11;102828.50;;;5.13;64.89
21520;BME280;10921;53.614;9.882;2023-03-01T08:22:38;102838.75;;;5.21;64.98
21520;BME280;10921;53.614;9.882;2023-03-01T08:25:05;102788.16;;;5.07;65.04
21520;BME280;10921;53.614;9.882;2023-03-01T08:27:31;102839.97;;;5.36;64.78
21520;BME280;10921;53.614;9.882;2023-03-01T08:29:58;102826.59;;;5.39;64.12
21520;BME280;10921;53.614;9.882;2023-03-01T08:32:25;102808.34;;;5.33;63.75
21520;BME280;10921;53.614;9.882;2023-03-01T08:34:51;102832.97;;;5.56;64.19
21520;BME280;10921;53.614;9.882;2023-03-01T08:37:18;102833.72;;;5.60;63.87
21520;BME280;10921;53.614;9.882;2023-03-01T08:39:44;102831.81;;;5.63;63.85
21520;BME280;10921;53.614;9.882;2023-03-01T08:42:11;102817.72;;;5.63;64.13
21520;BME280;10921;53.614;9.882;2023-03-01T08:44:37;102826.13;;;5.73;64.49
21520;BME280;10921;53.614;9.882;2023-03-01T08:47:04;102818.00;;;5.77;64.41
21520;BME280;10921;53.614;9.882;2023-03-01T08:49:31;102824.56;;;5.90;64.72
21520;BME280;10921;53.614;9.882;2023-03-01T08:51:58;102820.66;;;5.99;64.41
21520;BME280;10921;53.614;9.882;2023-03-01T08:54:25;102826.56;;;6.06;64.21
21520;BME280;10921;53.614;9.882;2023-03-01T08:56:51;102826.13;;;6.16;64.00
21520;BME280;10921;53.614;9.882;2023-03-01T08:59:18;102825.25;;;6.16;64.16
21520;BME280;10921;53.614;9.882;2023-03-01T09:01:45;102837.00;;;6.30;63.87
21520;BME280;10921;53.614;9.882;2023-03-01T09:04:14;102828.06;;;6.33;63.90
21520;BME280;10921;53.614;9.882;2023-03-01T09:06:40;102820.97;;;6.33;63.86
21520;BME280;10921;53.614;9.882;2023-03-01T09:09:13;102800.09;;;6.26;64.65
21520;BME280;10921;53.614;9.882;2023-03-01T09:11:42;102831.09;;;6.44;64.04
21520;BME280;10921;53.614;9.882;2023-03-01T09:14:09;102824.78;;;6.47;64.24
21520;BME280;10921;53.614;9.882;2023-03-01T09:16:36;102829.84;;;6.53;64.58
21520;BME280;10921;53.614;9.882;2023-03-01T09:19:03;102819.31;;;6.51;64.79
21520;BME280;10921;53.614;9.882;2023-03-01T09:21:30;102825.28;;;6.56;64.49
21520;BME280;10921;53.614;9.882;2023-03-01T09:24:08;102826.59;;;6.66;64.40
21520;BME280;10921;53.614;9.882;2023-03-01T09:26:38;102824.72;;;6.68;64.28
21520;BME280;10921;53.614;9.882;2023-03-01T09:29:04;102831.47;;;6.76;64.03
21520;BME280;10921;53.614;9.882;2023-03-01T09:31:31;102814.97;;;6.69;63.80
21520;BME280;10921;53.614;9.882;2023-03-01T09:33:57;102842.81;;;6.79;63.72
21520;BME280;10921;53.614;9.882;2023-03-01T09:36:24;102817.69;;;6.67;63.99
21520;BME280;10921;53.614;9.882;2023-03-01T09:38:56;102840.16;;;6.79;63.99
21520;BME280;10921;53.614;9.882;2023-03-01T09:44:25;102835.97;;;6.74;65.07
21520;BME280;10921;53.614;9.882;2023-03-01T09:46:53;102834.34;;;6.71;64.55
21520;BME280;10921;53.614;9.882;2023-03-01T09:49:23;102834.19;;;6.74;64.54
21520;BME280;10921;53.614;9.882;2023-03-01T09:52:01;102829.59;;;6.78;65.64
21520;BME280;10921;53.614;9.882;2023-03-01T09:54:29;102836.31;;;6.86;65.01
21520;BME280;10921;53.614;9.882;2023-03-01T09:57:17;102836.03;;;6.92;65.65
21520;BME280;10921;53.614;9.882;2023-03-01T10:00:20;102838.53;;;6.95;65.55
21520;BME280;10921;53.614;9.882;2023-03-01T10:02:52;102836.53;;;7.00;65.70
21520;BME280;10921;53.614;9.882;2023-03-01T10:05:44;102827.16;;;7.12;65.72
21520;BME280;10921;53.614;9.882;2023-03-01T10:08:27;102829.75;;;7.14;65.56
21520;BME280;10921;53.614;9.882;2023-03-01T10:10:57;102821.84;;;7.12;64.62
21520;BME280;10921;53.614;9.882;2023-03-01T10:13:47;102825.63;;;7.25;65.27
21520;BME280;10921;53.614;9.882;2023-03-01T10:16:27;102826.56;;;7.24;64.90
21520;BME280;10921;53.614;9.882;2023-03-01T10:18:59;102808.13;;;7.21;65.04
21520;BME280;10921;53.614;9.882;2023-03-01T10:21:28;102836.13;;;7.47;64.54
21520;BME280;10921;53.614;9.882;2023-03-01T10:24:10;102794.19;;;7.35;65.31
21520;BME280;10921;53.614;9.882;2023-03-01T10:26:47;102830.25;;;7.76;64.87
21520;BME280;10921;53.614;9.882;2023-03-01T10:29:14;102833.47;;;7.83;63.73
21520;BME280;10921;53.614;9.882;2023-03-01T10:31:46;102795.22;;;7.68;64.61
21520;BME280;10921;53.614;9.882;2023-03-01T10:34:16;102772.31;;;7.66;64.19
21520;BME280;10921;53.614;9.882;2023-03-01T10:36:46;102799.34;;;7.93;63.74
21520;BME280;10921;53.614;9.882;2023-03-01T10:39:18;102815.25;;;8.10;63.58
21520;BME280;10921;53.614;9.882;2023-03-01T10:47:01;102821.19;;;8.34;63.03
21520;BME280;10921;53.614;9.882;2023-03-01T10:49:30;102822.16;;;8.31;62.72
21520;BME280;10921;53.614;9.882;2023-03-01T10:52:15;102811.53;;;8.31;63.02
21520;BME280;10921;53.614;9.882;2023-03-01T10:54:51;102826.28;;;8.38;63.08
21520;BME280;10921;53.614;9.882;2023-03-01T10:57:33;102817.44;;;8.38;63.42
21520;BME280;10921;53.614;9.882;2023-03-01T11:00:25;102818.66;;;8.48;63.16
21520;BME280;10921;53.614;9.882;2023-03-01T11:05:26;102790.75;;;8.39;62.26
21520;BME280;10921;53.614;9.882;2023-03-01T11:07:56;102798.00;;;8.53;62.17
21520;BME280;10921;53.614;9.882;2023-03-01T11:10:35;102803.06;;;8.58;63.16
21520;BME280;10921;53.614;9.882;2023-03-01T11:13:18;102797.97;;;8.70;63.44
21520;BME280;10921;53.614;9.882;2023-03-01T11:16:00;102799.97;;;8.82;63.55
21520;BME280;10921;53.614;9.882;2023-03-01T11:18:29;102794.91;;;8.94;62.65
21520;BME280;10921;53.614;9.882;2023-03-01T11:21:13;102793.22;;;9.08;61.65
21520;BME280;10921;53.614;9.882;2023-03-01T11:23:42;102770.97;;;9.09;61.23
21520;BME280;10921;53.614;9.882;2023-03-01T11:26:13;102796.84;;;9.23;60.70
21520;BME280;10921;53.614;9.882;2023-03-01T11:28:42;102772.25;;;9.18;61.02
21520;BME280;10921;53.614;9.882;2023-03-01T11:31:11;102789.19;;;9.17;60.55
21520;BME280;10921;53.614;9.882;2023-03-01T11:33:49;102797.88;;;9.21;61.42
21520;BME280;10921;53.614;9.882;2023-03-01T11:36:35;102787.22;;;9.36;61.68
21520;BME280;10921;53.614;9.882;2023-03-01T11:39:39;102786.34;;;9.51;61.26
21520;BME280;10921;53.614;9.882;2023-03-01T11:42:18;102771.03;;;9.55;61.14
21520;BME280;10921;53.614;9.882;2023-03-01T11:44:48;102792.09;;;9.75;59.91
21520;BME280;10921;53.614;9.882;2023-03-01T11:50:24;102781.63;;;10.16;60.59
21520;BME280;10921;53.614;9.882;2023-03-01T12:06:57;102762.75;;;10.78;58.70
21520;BME280;10921;53.614;9.882;2023-03-01T12:12:27;102757.88;;;10.99;58.61
21520;BME280;10921;53.614;9.882;2023-03-01T12:18:09;102757.03;;;10.98;57.65
21520;BME280;10921;53.614;9.882;2023-03-01T12:21:05;102751.00;;;10.95;58.10
21520;BME280;10921;53.614;9.882;2023-03-01T12:26:36;102754.50;;;11.09;57.09
21520;BME280;10921;53.614;9.882;2023-03-01T12:45:51;102724.09;;;11.39;57.34
21520;BME280;10921;53.614;9.882;2023-03-01T12:49:02;102711.81;;;11.49;57.14
21520;BME280;10921;53.614;9.882;2023-03-01T12:51:35;102687.28;;;11.15;56.77
21520;BME280;10921;53.614;9.882;2023-03-01T12:54:27;102709.94;;;11.37;57.08
21520;BME280;10921;53.614;9.882;2023-03-01T12:56:57;102719.88;;;11.35;56.46
21520;BME280;10921;53.614;9.882;2023-03-01T12:59:40;102691.31;;;11.22;57.61
21520;BME280;10921;53.614;9.882;2023-03-01T13:02:14;102701.22;;;11.20;56.67
21520;BME280;10921;53.614;9.882;2023-03-01T13:05:13;102688.06;;;11.17;57.54
21520;BME280;10921;53.614;9.882;2023-03-01T13:10:26;102673.13;;;11.01;57.57
21520;BME280;10921;53.614;9.882;2023-03-01T13:17:50;102641.03;;;10.88;56.27
21520;BME280;10921;53.614;9.882;2023-03-01T13:20:20;102690.50;;;11.08;57.06
21520;BME280;10921;53.614;9.882;2023-03-01T13:23:00;102684.09;;;11.10;57.75
21520;BME280;10921;53.614;9.882;2023-03-01T13:25:28;102689.91;;;11.03;57.83
21520;BME280;10921;53.614;9.882;2023-03-01T13:31:09;102653.16;;;10.79;57.29
21520;BME280;10921;53.614;9.882;2023-03-01T13:47:14;102682.72;;;10.90;58.39
21520;BME280;10921;53.614;9.882;2023-03-01T13:49:53;102669.44;;;10.89;58.85
21520;BME280;10921;53.614;9.882;2023-03-01T13:57:42;102670.22;;;10.91;56.96
21520;BME280;10921;53.614;9.882;2023-03-01T14:00:36;102662.75;;;10.96;57.42
21520;BME280;10921;53.614;9.882;2023-03-01T14:03:18;102668.34;;;11.06;56.70
21520;BME280;10921;53.614;9.882;2023-03-01T14:06:19;102674.06;;;11.14;56.90
21520;BME280;10921;53.614;9.882;2023-03-01T14:08:49;102607.47;;;10.84;57.11
21520;BME280;10921;53.614;9.882;2023-03-01T14:14:07;102640.47;;;11.10;57.15
21520;BME280;10921;53.614;9.882;2023-03-01T14:19:25;102645.25;;;11.32;56.79
21520;BME280;10921;53.614;9.882;2023-03-01T14:24:35;102648.59;;;11.48;56.62
21520;BME280;10921;53.614;9.882;2023-03-01T14:27:04;102640.06;;;11.55;56.49
21520;BME280;10921;53.614;9.882;2023-03-01T14:29:38;102631.00;;;11.58;56.50
21520;BME280;10921;53.614;9.882;2023-03-01T14:32:11;102642.91;;;11.79;55.96
21520;BME280;10921;53.614;9.882;2023-03-01T14:34:43;102640.13;;;11.81;55.14
21520;BME280;10921;53.614;9.882;2023-03-01T14:37:32;102629.13;;;11.85;55.25
21520;BME280;10921;53.614;9.882;2023-03-01T14:40:01;102626.97;;;11.78;53.63
21520;BME280;10921;53.614;9.882;2023-03-01T14:42:34;102626.00;;;11.79;54.40
21520;BME280;10921;53.614;9.882;2023-03-01T14:45:03;102586.16;;;11.49;54.96
21520;BME280;10921;53.614;9.882;2023-03-01T14:47:32;102615.16;;;11.68;54.62
21520;BME280;10921;53.614;9.882;2023-03-01T14:50:18;102613.16;;;11.71;55.35
21520;BME280;10921;53.614;9.882;2023-03-01T14:52:47;102616.13;;;11.67;54.45
21520;BME280;10921;53.614;9.882;2023-03-01T14:55:36;102610.69;;;11.68;54.83
21520;BME280;10921;53.614;9.882;2023-03-01T14:58:13;102573.31;;;11.41;54.75